sensor_id;sensor_type;location;lat;lon;timestamp;temperature;humidity
5802;DHT22;2927;49.366;8.530;2024-02-23T00:01:28;8.00;1.00
5802;DHT22;2927;49.366;8.530;2024-02-23T00:03:53;8.00;1.00
5802;DHT22;2927;49.366;8.530;2024-02-23T00:06:20;8.00;1.00
5802;DHT22;2927;49.366;8.530;2024-02-23T00:08:46;8.00;1.00
5802;DHT22;2927;49.366;8.530;2024-02-23T00:11:11;7.90;1.00
5802;DHT22;2927;49.366;8.530;2024-02-23T00:13:37;7.90;1.00
5802;DHT22;2927;49.366;8.530;2024-02-23T00:16:03;7.90;1.00
5802;DHT22;2927;49.366;8.530;2024-02-23T00:18:28;7.80;1.00
5802;DHT22;2927;49.366;8.530;2024-02-23T00:20:55;7.80;1.00
5802;DHT22;2927;49.366;8.530;2024-02-23T00:23:21;7.80;1.00
5802;DHT22;2927;49.366;8.530;2024-02-23T00:25:47;7.80;1.00
5802;DHT22;2927;49.366;8.530;2024-02-23T00:28:12;7.80;1.00
5802;DHT22;2927;49.366;8.530;2024-02-23T00:30:38;7.80;1.00
5802;DHT22;2927;49.366;8.530;2024-02-23T00:33:04;7.80;1.00
5802;DHT22;2927;49.366;8.530;2024-02-23T00:35:29;7.80;1.00
5802;DHT22;2927;49.366;8.530;2024-02-23T00:37:55;7.70;1.00
5802;DHT22;2927;49.366;8.530;2024-02-23T00:40:21;7.60;61.30
5802;DHT22;2927;49.366;8.530;2024-02-23T00:42:48;7.40;99.90
5802;DHT22;2927;49.366;8.530;2024-02-23T00:45:14;7.30;99.90
5802;DHT22;2927;49.366;8.530;2024-02-23T00:47:40;7.20;99.90
5802;DHT22;2927;49.366;8.530;2024-02-23T00:50:06;7.10;99.90
5802;DHT22;2927;49.366;8.530;2024-02-23T00:52:31;7.10;99.90
5802;DHT22;2927;49.366;8.530;2024-02-23T00:54:57;7.10;95.10
5802;DHT22;2927;49.366;8.530;2024-02-23T00:57:23;7.20;1.00
5802;DHT22;2927;49.366;8.530;2024-02-23T00:59:57;7.20;1.00
5802;DHT22;2927;49.366;8.530;2024-02-23T01:02:23;7.20;1.00
5802;DHT22;2927;49.366;8.530;2024-02-23T01:04:48;7.20;1.00
5802;DHT22;2927;49.366;8.530;2024-02-23T01:07:14;7.20;1.00
5802;DHT22;2927;49.366;8.530;2024-02-23T01:09:39;7.10;1.00
5802;DHT22;2927;49.366;8.530;2024-02-23T01:12:05;7.10;1.00
5802;DHT22;2927;49.366;8.530;2024-02-23T01:14:31;7.00;1.00
5802;DHT22;2927;49.366;8.530;2024-02-23T01:16:57;7.10;1.00
5802;DHT22;2927;49.366;8.530;2024-02-23T01:19:22;7.10;1.00
5802;DHT22;2927;49.366;8.530;2024-02-23T01:21:49;7.00;1.00
5802;DHT22;2927;49.366;8.530;2024-02-23T01:24:21;7.00;1.00
5802;DHT22;2927;49.366;8.530;2024-02-23T01:26:46;6.90;1.00
5802;DHT22;2927;49.366;8.530;2024-02-23T01:29:12;6.90;1.00
5802;DHT22;2927;49.366;8.530;2024-02-23T01:31:37;6.80;1.00
5802;DHT22;2927;49.366;8.530;2024-02-23T01:34:03;6.80;1.00
5802;DHT22;2927;49.366;8.530;2024-02-23T01:36:29;6.70;1.00
5802;DHT22;2927;49.366;8.530;2024-02-23T01:38:54;6.70;1.00
5802;DHT22;2927;49.366;8.530;2024-02-23T01:41:20;6.80;1.00
5802;DHT22;2927;49.366;8.530;2024-02-23T01:43:45;6.70;1.00
5802;DHT22;2927;49.366;8.530;2024-02-23T01:46:11;6.70;1.00
5802;DHT22;2927;49.366;8.530;2024-02-23T01:48:37;6.70;1.00
5802;DHT22;2927;49.366;8.530;2024-02-23T01:51:03;6.70;1.00
5802;DHT22;2927;49.366;8.530;2024-02-23T01:53:28;6.80;1.00
5802;DHT22;2927;49.366;8.530;2024-02-23T01:55:55;6.80;1.00
5802;DHT22;2927;49.366;8.530;2024-02-23T01:58:21;6.90;1.00
5802;DHT22;2927;49.366;8.530;2024-02-23T02:00:46;7.00;1.00
5802;DHT22;2927;49.366;8.530;2024-02-23T02:03:12;7.00;1.00
5802;DHT22;2927;49.366;8.530;2024-02-23T02:05:38;7.10;1.00
5802;DHT22;2927;49.366;8.530;2024-02-23T02:08:04;7.20;1.00
5802;DHT22;2927;49.366;8.530;2024-02-23T02:10:30;7.00;1.00
5802;DHT22;2927;49.366;8.530;2024-02-23T02:12:55;6.70;19.40
5802;DHT22;2927;49.366;8.530;2024-02-23T02:15:26;6.50;99.90
5802;DHT22;2927;49.366;8.530;2024-02-23T02:17:52;6.30;1.00
5802;DHT22;2927;49.366;8.530;2024-02-23T02:20:18;6.10;1.00
5802;DHT22;2927;49.366;8.530;2024-02-23T02:22:44;6.00;1.00
5802;DHT22;2927;49.366;8.530;2024-02-23T02:25:10;5.90;99.90
5802;DHT22;2927;49.366;8.530;2024-02-23T02:27:35;5.80;1.00
5802;DHT22;2927;49.366;8.530;2024-02-23T02:30:01;5.70;1.00
5802;DHT22;2927;49.366;8.530;2024-02-23T02:32:28;5.80;1.00
5802;DHT22;2927;49.366;8.530;2024-02-23T02:34:53;5.70;1.00
5802;DHT22;2927;49.366;8.530;2024-02-23T02:37:19;5.60;1.00
5802;DHT22;2927;49.366;8.530;2024-02-23T02:39:44;5.60;1.00
5802;DHT22;2927;49.366;8.530;2024-02-23T02:42:10;5.60;1.00
5802;DHT22;2927;49.366;8.530;2024-02-23T02:44:35;5.60;1.00
5802;DHT22;2927;49.366;8.530;2024-02-23T02:47:01;5.70;1.00
5802;DHT22;2927;49.366;8.530;2024-02-23T02:49:26;5.70;1.00
5802;DHT22;2927;49.366;8.530;2024-02-23T02:51:52;5.70;1.00
5802;DHT22;2927;49.366;8.530;2024-02-23T02:54:17;5.70;1.00
5802;DHT22;2927;49.366;8.530;2024-02-23T02:56:44;5.70;1.00
5802;DHT22;2927;49.366;8.530;2024-02-23T02:59:11;5.80;1.00
5802;DHT22;2927;49.366;8.530;2024-02-23T03:01:37;5.90;99.90
5802;DHT22;2927;49.366;8.530;2024-02-23T03:04:03;6.00;99.90
5802;DHT22;2927;49.366;8.530;2024-02-23T03:06:28;6.10;79.30
5802;DHT22;2927;49.366;8.530;2024-02-23T03:08:54;6.10;1.00
5802;DHT22;2927;49.366;8.530;2024-02-23T03:11:19;6.30;1.00
5802;DHT22;2927;49.366;8.530;2024-02-23T03:13:45;6.30;99.90
5802;DHT22;2927;49.366;8.530;2024-02-23T03:16:17;6.40;99.90
5802;DHT22;2927;49.366;8.530;2024-02-23T03:18:43;6.50;37.50
5802;DHT22;2927;49.366;8.530;2024-02-23T03:21:08;6.60;1.00
5802;DHT22;2927;49.366;8.530;2024-02-23T03:23:37;6.60;1.00
5802;DHT22;2927;49.366;8.530;2024-02-23T03:26:03;6.70;1.00
5802;DHT22;2927;49.366;8.530;2024-02-23T03:28:29;6.50;1.00
5802;DHT22;2927;49.366;8.530;2024-02-23T03:30:54;6.70;1.00
5802;DHT22;2927;49.366;8.530;2024-02-23T03:33:20;6.70;1.00
5802;DHT22;2927;49.366;8.530;2024-02-23T03:35:45;6.80;1.00
5802;DHT22;2927;49.366;8.530;2024-02-23T03:38:11;6.80;1.00
5802;DHT22;2927;49.366;8.530;2024-02-23T03:40:37;6.80;1.00
5802;DHT22;2927;49.366;8.530;2024-02-23T03:43:02;6.80;1.00
5802;DHT22;2927;49.366;8.530;2024-02-23T03:45:28;6.80;1.00
5802;DHT22;2927;49.366;8.530;2024-02-23T03:47:54;6.70;1.00
5802;DHT22;2927;49.366;8.530;2024-02-23T03:50:19;6.70;1.00
5802;DHT22;2927;49.366;8.530;2024-02-23T03:52:45;6.70;1.00
5802;DHT22;2927;49.366;8.530;2024-02-23T03:55:11;6.70;1.00
5802;DHT22;2927;49.366;8.530;2024-02-23T03:57:37;6.70;1.00
5802;DHT22;2927;49.366;8.530;2024-02-23T04:00:03;6.70;1.00
5802;DHT22;2927;49.366;8.530;2024-02-23T04:02:28;6.70;1.00
5802;DHT22;2927;49.366;8.530;2024-02-23T04:04:54;6.80;1.00
5802;DHT22;2927;49.366;8.530;2024-02-23T04:07:20;6.80;1.00
5802;DHT22;2927;49.366;8.530;2024-02-23T04:09:46;6.70;1.00
5802;DHT22;2927;49.366;8.530;2024-02-23T04:12:23;6.70;1.00
5802;DHT22;2927;49.366;8.530;2024-02-23T04:14:49;6.70;1.00
5802;DHT22;2927;49.366;8.530;2024-02-23T04:17:14;6.60;1.00
5802;DHT22;2927;49.366;8.530;2024-02-23T04:19:41;6.50;1.00
5802;DHT22;2927;49.366;8.530;2024-02-23T04:22:08;6.40;1.00
5802;DHT22;2927;49.366;8.530;2024-02-23T04:24:36;6.40;1.00
5802;DHT22;2927;49.366;8.530;2024-02-23T04:27:03;6.30;1.00
5802;DHT22;2927;49.366;8.530;2024-02-23T04:29:28;6.30;1.00
5802;DHT22;2927;49.366;8.530;2024-02-23T04:31:54;6.30;1.00
5802;DHT22;2927;49.366;8.530;2024-02-23T04:34:19;6.30;1.00
5802;DHT22;2927;49.366;8.530;2024-02-23T04:36:45;6.30;1.00
5802;DHT22;2927;49.366;8.530;2024-02-23T04:39:11;6.20;1.00
5802;DHT22;2927;49.366;8.530;2024-02-23T04:41:36;6.30;1.00
5802;DHT22;2927;49.366;8.530;2024-02-23T04:44:02;6.20;1.00
5802;DHT22;2927;49.366;8.530;2024-02-23T04:46:27;6.20;1.00
5802;DHT22;2927;49.366;8.530;2024-02-23T04:48:53;6.20;1.00
5802;DHT22;2927;49.366;8.530;2024-02-23T04:51:18;6.20;1.00
5802;DHT22;2927;49.366;8.530;2024-02-23T04:53:44;6.20;1.00
5802;DHT22;2927;49.366;8.530;2024-02-23T04:56:10;6.20;30.00
5802;DHT22;2927;49.366;8.530;2024-02-23T04:58:35;6.30;16.00
5802;DHT22;2927;49.366;8.530;2024-02-23T05:01:03;6.30;1.00
5802;DHT22;2927;49.366;8.530;2024-02-23T05:03:28;6.30;1.00
5802;DHT22;2927;49.366;8.530;2024-02-23T05:05:54;6.20;45.20
5802;DHT22;2927;49.366;8.530;2024-02-23T05:08:20;6.30;11.70
5802;DHT22;2927;49.366;8.530;2024-02-23T05:10:47;6.20;34.60
5802;DHT22;2927;49.366;8.530;2024-02-23T05:13:13;6.20;99.90
5802;DHT22;2927;49.366;8.530;2024-02-23T05:15:38;6.20;90.00
5802;DHT22;2927;49.366;8.530;2024-02-23T05:18:04;6.20;99.90
5802;DHT22;2927;49.366;8.530;2024-02-23T05:20:32;6.10;99.90
5802;DHT22;2927;49.366;8.530;2024-02-23T05:22:58;6.10;99.90
5802;DHT22;2927;49.366;8.530;2024-02-23T05:25:23;6.10;93.40
5802;DHT22;2927;49.366;8.530;2024-02-23T05:27:51;6.10;99.90
5802;DHT22;2927;49.366;8.530;2024-02-23T05:30:16;6.00;99.90
5802;DHT22;2927;49.366;8.530;2024-02-23T05:32:42;6.00;99.90
5802;DHT22;2927;49.366;8.530;2024-02-23T05:35:07;6.10;99.90
5802;DHT22;2927;49.366;8.530;2024-02-23T05:37:34;6.10;90.60
5802;DHT22;2927;49.366;8.530;2024-02-23T05:40:00;6.00;99.90
5802;DHT22;2927;49.366;8.530;2024-02-23T05:42:28;6.00;99.90
5802;DHT22;2927;49.366;8.530;2024-02-23T05:44:54;6.00;93.30
5802;DHT22;2927;49.366;8.530;2024-02-23T05:47:19;6.00;8.00
5802;DHT22;2927;49.366;8.530;2024-02-23T05:49:47;6.00;83.70
5802;DHT22;2927;49.366;8.530;2024-02-23T05:52:12;6.00;94.60
5802;DHT22;2927;49.366;8.530;2024-02-23T05:54:38;6.00;90.10
5802;DHT22;2927;49.366;8.530;2024-02-23T05:57:04;6.00;99.90
5802;DHT22;2927;49.366;8.530;2024-02-23T05:59:30;6.00;1.00
5802;DHT22;2927;49.366;8.530;2024-02-23T06:01:55;6.00;1.00
5802;DHT22;2927;49.366;8.530;2024-02-23T06:04:24;6.00;1.00
5802;DHT22;2927;49.366;8.530;2024-02-23T06:06:50;6.10;1.00
5802;DHT22;2927;49.366;8.530;2024-02-23T06:09:15;6.00;1.00
5802;DHT22;2927;49.366;8.530;2024-02-23T06:11:41;6.00;1.00
5802;DHT22;2927;49.366;8.530;2024-02-23T06:14:07;6.00;1.00
5802;DHT22;2927;49.366;8.530;2024-02-23T06:16:33;6.10;1.00
5802;DHT22;2927;49.366;8.530;2024-02-23T06:18:59;6.00;1.00
5802;DHT22;2927;49.366;8.530;2024-02-23T06:21:24;6.00;1.00
5802;DHT22;2927;49.366;8.530;2024-02-23T06:23:50;6.00;1.00
5802;DHT22;2927;49.366;8.530;2024-02-23T06:26:15;6.00;1.00
5802;DHT22;2927;49.366;8.530;2024-02-23T06:28:42;6.00;1.00
5802;DHT22;2927;49.366;8.530;2024-02-23T06:31:08;6.00;1.00
5802;DHT22;2927;49.366;8.530;2024-02-23T06:33:34;6.00;1.00
5802;DHT22;2927;49.366;8.530;2024-02-23T06:36:00;6.00;1.00
5802;DHT22;2927;49.366;8.530;2024-02-23T06:38:26;5.90;1.00
5802;DHT22;2927;49.366;8.530;2024-02-23T06:40:52;5.90;1.00
5802;DHT22;2927;49.366;8.530;2024-02-23T06:43:18;5.80;1.00
5802;DHT22;2927;49.366;8.530;2024-02-23T06:45:44;5.80;1.00
5802;DHT22;2927;49.366;8.530;2024-02-23T06:48:09;5.70;1.00
5802;DHT22;2927;49.366;8.530;2024-02-23T06:50:35;5.70;1.00
5802;DHT22;2927;49.366;8.530;2024-02-23T06:53:01;5.70;1.00
5802;DHT22;2927;49.366;8.530;2024-02-23T06:55:27;5.60;1.00
5802;DHT22;2927;49.366;8.530;2024-02-23T06:57:54;5.60;1.00
5802;DHT22;2927;49.366;8.530;2024-02-23T07:00:20;5.60;1.00
5802;DHT22;2927;49.366;8.530;2024-02-23T07:02:47;5.50;1.00
5802;DHT22;2927;49.366;8.530;2024-02-23T07:05:12;5.50;1.00
5802;DHT22;2927;49.366;8.530;2024-02-23T07:07:39;5.50;1.00
5802;DHT22;2927;49.366;8.530;2024-02-23T07:10:06;5.50;1.00
5802;DHT22;2927;49.366;8.530;2024-02-23T07:12:31;5.50;1.00
5802;DHT22;2927;49.366;8.530;2024-02-23T07:14:57;5.50;1.00
5802;DHT22;2927;49.366;8.530;2024-02-23T07:17:23;5.40;1.00
5802;DHT22;2927;49.366;8.530;2024-02-23T07:19:48;5.50;1.00
5802;DHT22;2927;49.366;8.530;2024-02-23T07:22:16;5.40;1.00
5802;DHT22;2927;49.366;8.530;2024-02-23T07:24:43;5.40;1.00
5802;DHT22;2927;49.366;8.530;2024-02-23T07:27:09;5.50;1.00
5802;DHT22;2927;49.366;8.530;2024-02-23T07:29:34;5.50;1.00
5802;DHT22;2927;49.366;8.530;2024-02-23T07:32:00;5.60;1.00
5802;DHT22;2927;49.366;8.530;2024-02-23T07:34:25;5.80;1.00
5802;DHT22;2927;49.366;8.530;2024-02-23T07:36:54;5.90;1.00
5802;DHT22;2927;49.366;8.530;2024-02-23T07:39:20;5.90;1.00
5802;DHT22;2927;49.366;8.530;2024-02-23T07:41:46;6.00;1.00
5802;DHT22;2927;49.366;8.530;2024-02-23T07:44:12;6.30;1.00
5802;DHT22;2927;49.366;8.530;2024-02-23T07:46:37;6.40;1.00
5802;DHT22;2927;49.366;8.530;2024-02-23T07:49:04;6.90;1.00
5802;DHT22;2927;49.366;8.530;2024-02-23T07:51:29;7.80;99.90
5802;DHT22;2927;49.366;8.530;2024-02-23T07:53:55;9.70;99.90
5802;DHT22;2927;49.366;8.530;2024-02-23T07:56:21;11.40;99.90
5802;DHT22;2927;49.366;8.530;2024-02-23T07:58:46;13.30;31.30
5802;DHT22;2927;49.366;8.530;2024-02-23T08:01:13;14.30;1.00
5802;DHT22;2927;49.366;8.530;2024-02-23T08:03:40;14.40;1.00
5802;DHT22;2927;49.366;8.530;2024-02-23T08:06:05;15.10;1.00
5802;DHT22;2927;49.366;8.530;2024-02-23T08:08:31;15.50;1.00
5802;DHT22;2927;49.366;8.530;2024-02-23T08:11:00;15.30;1.00
5802;DHT22;2927;49.366;8.530;2024-02-23T08:13:26;15.00;1.00
5802;DHT22;2927;49.366;8.530;2024-02-23T08:15:51;13.60;1.00
5802;DHT22;2927;49.366;8.530;2024-02-23T08:18:17;12.60;1.00
5802;DHT22;2927;49.366;8.530;2024-02-23T08:20:42;12.60;1.00
5802;DHT22;2927;49.366;8.530;2024-02-23T08:23:08;11.80;1.00
5802;DHT22;2927;49.366;8.530;2024-02-23T08:25:35;10.90;1.00
5802;DHT22;2927;49.366;8.530;2024-02-23T08:28:01;10.40;1.00
5802;DHT22;2927;49.366;8.530;2024-02-23T08:30:26;10.00;1.00
5802;DHT22;2927;49.366;8.530;2024-02-23T08:32:52;9.70;1.00
5802;DHT22;2927;49.366;8.530;2024-02-23T08:35:18;9.60;1.00
5802;DHT22;2927;49.366;8.530;2024-02-23T08:37:44;9.90;1.00
5802;DHT22;2927;49.366;8.530;2024-02-23T08:40:10;10.60;1.00
5802;DHT22;2927;49.366;8.530;2024-02-23T08:42:35;10.30;1.00
5802;DHT22;2927;49.366;8.530;2024-02-23T08:45:01;10.20;1.00
5802;DHT22;2927;49.366;8.530;2024-02-23T08:47:27;9.80;1.00
5802;DHT22;2927;49.366;8.530;2024-02-23T08:49:57;9.50;1.00
5802;DHT22;2927;49.366;8.530;2024-02-23T08:52:23;9.50;1.00
5802;DHT22;2927;49.366;8.530;2024-02-23T08:54:48;9.20;1.00
5802;DHT22;2927;49.366;8.530;2024-02-23T08:57:14;9.20;12.50
5802;DHT22;2927;49.366;8.530;2024-02-23T08:59:47;9.10;11.60
5802;DHT22;2927;49.366;8.530;2024-02-23T09:02:13;9.30;21.20
5802;DHT22;2927;49.366;8.530;2024-02-23T09:04:38;9.40;22.50
5802;DHT22;2927;49.366;8.530;2024-02-23T09:07:04;9.70;19.10
5802;DHT22;2927;49.366;8.530;2024-02-23T09:09:30;9.70;17.50
5802;DHT22;2927;49.366;8.530;2024-02-23T09:11:55;9.80;16.40
5802;DHT22;2927;49.366;8.530;2024-02-23T09:14:21;10.00;13.90
5802;DHT22;2927;49.366;8.530;2024-02-23T09:16:46;10.20;7.80
5802;DHT22;2927;49.366;8.530;2024-02-23T09:19:13;10.10;3.60
5802;DHT22;2927;49.366;8.530;2024-02-23T09:21:38;10.20;1.50
5802;DHT22;2927;49.366;8.530;2024-02-23T09:24:04;10.90;1.00
5802;DHT22;2927;49.366;8.530;2024-02-23T09:26:30;12.60;1.00
5802;DHT22;2927;49.366;8.530;2024-02-23T09:28:56;14.10;1.00
5802;DHT22;2927;49.366;8.530;2024-02-23T09:31:22;15.10;1.00
5802;DHT22;2927;49.366;8.530;2024-02-23T09:33:47;15.70;1.00
5802;DHT22;2927;49.366;8.530;2024-02-23T09:36:16;16.90;1.00
5802;DHT22;2927;49.366;8.530;2024-02-23T09:38:41;16.90;1.00
5802;DHT22;2927;49.366;8.530;2024-02-23T09:41:15;17.20;1.00
5802;DHT22;2927;49.366;8.530;2024-02-23T09:43:44;16.70;1.00
5802;DHT22;2927;49.366;8.530;2024-02-23T09:46:11;17.50;1.00
5802;DHT22;2927;49.366;8.530;2024-02-23T09:48:38;17.50;1.00
5802;DHT22;2927;49.366;8.530;2024-02-23T09:51:05;17.80;1.00
5802;DHT22;2927;49.366;8.530;2024-02-23T09:53:31;16.50;1.00
5802;DHT22;2927;49.366;8.530;2024-02-23T09:55:58;15.00;1.00
5802;DHT22;2927;49.366;8.530;2024-02-23T09:58:26;13.80;1.00
5802;DHT22;2927;49.366;8.530;2024-02-23T10:00:56;13.00;1.00
5802;DHT22;2927;49.366;8.530;2024-02-23T10:03:25;12.60;1.00
5802;DHT22;2927;49.366;8.530;2024-02-23T10:05:52;12.40;1.00
5802;DHT22;2927;49.366;8.530;2024-02-23T10:08:18;12.20;1.00
5802;DHT22;2927;49.366;8.530;2024-02-23T10:10:46;12.20;1.00
5802;DHT22;2927;49.366;8.530;2024-02-23T10:13:12;12.20;1.00
5802;DHT22;2927;49.366;8.530;2024-02-23T10:15:37;11.90;1.00
5802;DHT22;2927;49.366;8.530;2024-02-23T10:18:04;11.90;1.00
5802;DHT22;2927;49.366;8.530;2024-02-23T10:20:29;12.10;1.00
5802;DHT22;2927;49.366;8.530;2024-02-23T10:22:56;11.90;1.00
5802;DHT22;2927;49.366;8.530;2024-02-23T10:25:22;11.50;1.00
5802;DHT22;2927;49.366;8.530;2024-02-23T10:27:47;11.60;1.00
5802;DHT22;2927;49.366;8.530;2024-02-23T10:30:13;11.70;1.00
5802;DHT22;2927;49.366;8.530;2024-02-23T10:32:41;11.70;1.00
5802;DHT22;2927;49.366;8.530;2024-02-23T10:35:13;11.50;1.00
5802;DHT22;2927;49.366;8.530;2024-02-23T10:37:42;11.50;1.00
5802;DHT22;2927;49.366;8.530;2024-02-23T10:40:11;11.40;1.00
5802;DHT22;2927;49.366;8.530;2024-02-23T10:42:38;11.60;1.00
5802;DHT22;2927;49.366;8.530;2024-02-23T10:45:05;11.80;1.00
5802;DHT22;2927;49.366;8.530;2024-02-23T10:47:31;11.80;1.00
5802;DHT22;2927;49.366;8.530;2024-02-23T10:50:00;11.30;1.00
5802;DHT22;2927;49.366;8.530;2024-02-23T10:52:27;11.10;1.00
5802;DHT22;2927;49.366;8.530;2024-02-23T10:54:53;11.20;1.00
5802;DHT22;2927;49.366;8.530;2024-02-23T10:57:19;11.30;1.00
5802;DHT22;2927;49.366;8.530;2024-02-23T10:59:46;11.60;1.00
5802;DHT22;2927;49.366;8.530;2024-02-23T11:02:14;11.70;1.00
5802;DHT22;2927;49.366;8.530;2024-02-23T11:04:45;11.40;1.00
5802;DHT22;2927;49.366;8.530;2024-02-23T11:07:14;11.30;1.00
5802;DHT22;2927;49.366;8.530;2024-02-23T11:09:40;11.30;1.00
5802;DHT22;2927;49.366;8.530;2024-02-23T11:12:06;11.20;1.00
5802;DHT22;2927;49.366;8.530;2024-02-23T11:14:38;11.00;1.00
5802;DHT22;2927;49.366;8.530;2024-02-23T11:17:04;10.70;1.00
5802;DHT22;2927;49.366;8.530;2024-02-23T11:22:01;10.50;1.00
5802;DHT22;2927;49.366;8.530;2024-02-23T11:24:31;10.60;1.00
5802;DHT22;2927;49.366;8.530;2024-02-23T11:26:59;10.60;1.00
5802;DHT22;2927;49.366;8.530;2024-02-23T11:29:29;10.70;1.00
5802;DHT22;2927;49.366;8.530;2024-02-23T11:31:55;10.90;1.00
5802;DHT22;2927;49.366;8.530;2024-02-23T11:34:26;10.90;1.00
5802;DHT22;2927;49.366;8.530;2024-02-23T11:36:53;10.80;1.00
5802;DHT22;2927;49.366;8.530;2024-02-23T11:39:19;10.60;1.00
5802;DHT22;2927;49.366;8.530;2024-02-23T11:41:48;10.60;1.00
5802;DHT22;2927;49.366;8.530;2024-02-23T11:44:14;10.70;1.00
5802;DHT22;2927;49.366;8.530;2024-02-23T11:46:39;10.70;1.00
5802;DHT22;2927;49.366;8.530;2024-02-23T11:49:05;10.50;1.00
5802;DHT22;2927;49.366;8.530;2024-02-23T11:51:31;10.40;1.00
5802;DHT22;2927;49.366;8.530;2024-02-23T11:53:57;10.40;1.00
5802;DHT22;2927;49.366;8.530;2024-02-23T11:56:23;10.30;1.00
5802;DHT22;2927;49.366;8.530;2024-02-23T11:58:49;10.20;1.00
5802;DHT22;2927;49.366;8.530;2024-02-23T12:01:15;10.10;1.00
5802;DHT22;2927;49.366;8.530;2024-02-23T12:03:40;10.20;1.00
5802;DHT22;2927;49.366;8.530;2024-02-23T12:06:09;10.30;1.00
5802;DHT22;2927;49.366;8.530;2024-02-23T12:08:35;10.30;1.00
5802;DHT22;2927;49.366;8.530;2024-02-23T12:11:08;10.30;1.00
5802;DHT22;2927;49.366;8.530;2024-02-23T12:13:34;10.30;1.00
5802;DHT22;2927;49.366;8.530;2024-02-23T12:16:01;10.30;1.00
5802;DHT22;2927;49.366;8.530;2024-02-23T12:18:26;10.30;1.00
5802;DHT22;2927;49.366;8.530;2024-02-23T12:20:53;10.40;1.00
5802;DHT22;2927;49.366;8.530;2024-02-23T12:23:18;10.40;1.00
5802;DHT22;2927;49.366;8.530;2024-02-23T12:25:54;10.50;1.00
5802;DHT22;2927;49.366;8.530;2024-02-23T12:28:21;10.50;1.00
5802;DHT22;2927;49.366;8.530;2024-02-23T12:30:58;10.70;1.00
5802;DHT22;2927;49.366;8.530;2024-02-23T12:33:31;11.00;1.00
5802;DHT22;2927;49.366;8.530;2024-02-23T12:35:58;10.90;1.00
5802;DHT22;2927;49.366;8.530;2024-02-23T12:38:24;11.00;1.00
5802;DHT22;2927;49.366;8.530;2024-02-23T12:40:50;11.00;1.00
5802;DHT22;2927;49.366;8.530;2024-02-23T12:43:17;10.70;1.00
5802;DHT22;2927;49.366;8.530;2024-02-23T12:45:42;10.40;1.00
5802;DHT22;2927;49.366;8.530;2024-02-23T12:48:10;10.20;99.90
5802;DHT22;2927;49.366;8.530;2024-02-23T12:50:36;10.10;99.90
5802;DHT22;2927;49.366;8.530;2024-02-23T12:53:02;10.10;99.90
5802;DHT22;2927;49.366;8.530;2024-02-23T12:55:29;10.40;99.90
5802;DHT22;2927;49.366;8.530;2024-02-23T12:57:54;10.80;39.40
5802;DHT22;2927;49.366;8.530;2024-02-23T13:00:20;11.10;17.00
5802;DHT22;2927;49.366;8.530;2024-02-23T13:02:45;11.20;1.00
5802;DHT22;2927;49.366;8.530;2024-02-23T13:05:11;11.00;1.00
5802;DHT22;2927;49.366;8.530;2024-02-23T13:07:36;10.70;1.00
5802;DHT22;2927;49.366;8.530;2024-02-23T13:10:04;10.60;1.00
5802;DHT22;2927;49.366;8.530;2024-02-23T13:12:30;10.60;1.00
5802;DHT22;2927;49.366;8.530;2024-02-23T13:14:55;10.70;1.00
5802;DHT22;2927;49.366;8.530;2024-02-23T13:17:21;10.80;1.00
5802;DHT22;2927;49.366;8.530;2024-02-23T13:19:46;10.90;1.00
5802;DHT22;2927;49.366;8.530;2024-02-23T13:22:12;10.80;1.00
5802;DHT22;2927;49.366;8.530;2024-02-23T13:24:37;11.00;1.00
5802;DHT22;2927;49.366;8.530;2024-02-23T13:27:05;11.10;1.00
5802;DHT22;2927;49.366;8.530;2024-02-23T13:29:31;11.10;1.00
5802;DHT22;2927;49.366;8.530;2024-02-23T13:31:57;11.10;1.00
5802;DHT22;2927;49.366;8.530;2024-02-23T13:34:23;11.10;1.00
5802;DHT22;2927;49.366;8.530;2024-02-23T13:36:48;11.20;1.00
5802;DHT22;2927;49.366;8.530;2024-02-23T13:39:15;11.30;1.00
5802;DHT22;2927;49.366;8.530;2024-02-23T13:41:41;11.20;1.00
5802;DHT22;2927;49.366;8.530;2024-02-23T13:44:07;11.00;1.00
5802;DHT22;2927;49.366;8.530;2024-02-23T13:46:35;10.90;1.00
5802;DHT22;2927;49.366;8.530;2024-02-23T13:49:04;10.90;1.00
5802;DHT22;2927;49.366;8.530;2024-02-23T13:51:32;10.90;1.00
5802;DHT22;2927;49.366;8.530;2024-02-23T13:53:57;10.80;1.00
5802;DHT22;2927;49.366;8.530;2024-02-23T13:56:23;10.90;1.00
5802;DHT22;2927;49.366;8.530;2024-02-23T13:58:48;10.70;1.00
5802;DHT22;2927;49.366;8.530;2024-02-23T14:01:14;10.60;1.00
5802;DHT22;2927;49.366;8.530;2024-02-23T14:03:40;10.60;1.00
5802;DHT22;2927;49.366;8.530;2024-02-23T14:06:06;10.60;1.00
5802;DHT22;2927;49.366;8.530;2024-02-23T14:08:32;10.70;1.00
5802;DHT22;2927;49.366;8.530;2024-02-23T14:11:00;10.60;1.00
5802;DHT22;2927;49.366;8.530;2024-02-23T14:13:26;10.40;1.00
5802;DHT22;2927;49.366;8.530;2024-02-23T14:15:51;10.30;1.00
5802;DHT22;2927;49.366;8.530;2024-02-23T14:18:17;10.20;1.00
5802;DHT22;2927;49.366;8.530;2024-02-23T14:20:43;10.10;1.00
5802;DHT22;2927;49.366;8.530;2024-02-23T14:23:09;10.00;1.00
5802;DHT22;2927;49.366;8.530;2024-02-23T14:25:35;10.00;1.00
5802;DHT22;2927;49.366;8.530;2024-02-23T14:28:01;10.00;1.00
5802;DHT22;2927;49.366;8.530;2024-02-23T14:30:26;9.90;1.00
5802;DHT22;2927;49.366;8.530;2024-02-23T14:32:52;10.00;1.00
5802;DHT22;2927;49.366;8.530;2024-02-23T14:35:17;10.00;1.00
5802;DHT22;2927;49.366;8.530;2024-02-23T14:37:43;10.10;1.00
5802;DHT22;2927;49.366;8.530;2024-02-23T14:40:09;10.10;1.00
5802;DHT22;2927;49.366;8.530;2024-02-23T14:42:35;10.20;1.00
5802;DHT22;2927;49.366;8.530;2024-02-23T14:45:01;10.30;1.00
5802;DHT22;2927;49.366;8.530;2024-02-23T14:47:26;10.30;1.00
5802;DHT22;2927;49.366;8.530;2024-02-23T14:49:52;10.30;1.00
5802;DHT22;2927;49.366;8.530;2024-02-23T14:52:17;10.60;1.00
5802;DHT22;2927;49.366;8.530;2024-02-23T14:54:43;10.70;1.00
5802;DHT22;2927;49.366;8.530;2024-02-23T14:57:08;10.70;1.00
5802;DHT22;2927;49.366;8.530;2024-02-23T14:59:34;10.60;1.00
5802;DHT22;2927;49.366;8.530;2024-02-23T15:02:18;10.50;1.00
5802;DHT22;2927;49.366;8.530;2024-02-23T15:04:44;10.40;1.00
5802;DHT22;2927;49.366;8.530;2024-02-23T15:07:09;10.40;1.00
5802;DHT22;2927;49.366;8.530;2024-02-23T15:09:35;10.40;1.00
5802;DHT22;2927;49.366;8.530;2024-02-23T15:12:01;10.40;1.00
5802;DHT22;2927;49.366;8.530;2024-02-23T15:14:26;10.40;1.00
5802;DHT22;2927;49.366;8.530;2024-02-23T15:16:52;10.50;1.00
5802;DHT22;2927;49.366;8.530;2024-02-23T15:19:17;10.50;1.00
5802;DHT22;2927;49.366;8.530;2024-02-23T15:21:43;10.40;1.00
5802;DHT22;2927;49.366;8.530;2024-02-23T15:24:10;10.30;1.00
5802;DHT22;2927;49.366;8.530;2024-02-23T15:26:35;10.30;1.00
5802;DHT22;2927;49.366;8.530;2024-02-23T15:29:01;10.30;1.00
5802;DHT22;2927;49.366;8.530;2024-02-23T15:31:28;10.30;1.00
5802;DHT22;2927;49.366;8.530;2024-02-23T15:33:54;10.40;1.00
5802;DHT22;2927;49.366;8.530;2024-02-23T15:36:21;10.30;1.00
5802;DHT22;2927;49.366;8.530;2024-02-23T15:38:47;10.30;1.00
5802;DHT22;2927;49.366;8.530;2024-02-23T15:41:13;10.20;1.00
5802;DHT22;2927;49.366;8.530;2024-02-23T15:43:38;10.20;1.00
5802;DHT22;2927;49.366;8.530;2024-02-23T15:46:04;10.20;1.00
5802;DHT22;2927;49.366;8.530;2024-02-23T15:48:29;10.20;1.00
5802;DHT22;2927;49.366;8.530;2024-02-23T15:50:56;10.20;1.00
5802;DHT22;2927;49.366;8.530;2024-02-23T15:53:22;10.20;1.00
5802;DHT22;2927;49.366;8.530;2024-02-23T15:55:48;10.20;1.00
5802;DHT22;2927;49.366;8.530;2024-02-23T15:58:14;10.20;1.00
5802;DHT22;2927;49.366;8.530;2024-02-23T16:00:45;10.20;1.00
5802;DHT22;2927;49.366;8.530;2024-02-23T16:03:10;10.20;1.00
5802;DHT22;2927;49.366;8.530;2024-02-23T16:05:36;10.20;1.00
5802;DHT22;2927;49.366;8.530;2024-02-23T16:08:01;10.20;1.00
5802;DHT22;2927;49.366;8.530;2024-02-23T16:10:29;10.10;1.00
5802;DHT22;2927;49.366;8.530;2024-02-23T16:12:55;10.10;1.00
5802;DHT22;2927;49.366;8.530;2024-02-23T16:15:23;10.00;1.00
5802;DHT22;2927;49.366;8.530;2024-02-23T16:17:49;10.00;1.00
5802;DHT22;2927;49.366;8.530;2024-02-23T16:20:14;10.00;1.00